createdAt,value
2019-05-13T00:01:47.356Z,6.53
2019-05-13T00:04:14.897Z,6.46
2019-05-13T00:06:51.414Z,6.46
2019-05-13T00:09:10.835Z,6.45
2019-05-13T00:11:38.080Z,6.26
2019-05-13T00:14:06.032Z,6.26
2019-05-13T00:16:34.417Z,6.25
2019-05-13T00:19:03.965Z,6.22
2019-05-13T00:21:30.705Z,6.22
2019-05-13T00:23:57.921Z,6.07
2019-05-13T00:26:24.981Z,6.07
2019-05-13T00:28:53.439Z,6.08
2019-05-13T00:31:21.312Z,5.99
2019-05-13T00:33:48.311Z,6.10
2019-05-13T00:36:15.354Z,6.10
2019-05-13T00:38:44.027Z,6.13
2019-05-13T00:41:14.047Z,6.07
2019-05-13T00:43:40.877Z,5.94
2019-05-13T00:46:08.010Z,6.03
2019-05-13T00:48:35.048Z,5.93
2019-05-13T00:51:03.816Z,5.93
2019-05-13T00:53:31.449Z,5.90
2019-05-13T00:55:58.450Z,5.79
2019-05-13T00:58:25.482Z,5.63
2019-05-13T01:00:54.617Z,5.63
2019-05-13T01:03:21.440Z,5.57
2019-05-13T01:05:48.504Z,5.53
2019-05-13T01:08:15.622Z,5.48
2019-05-13T01:10:45.125Z,5.48
2019-05-13T01:13:13.667Z,5.44
2019-05-13T01:15:40.808Z,5.43
2019-05-13T01:18:07.844Z,5.33
2019-05-13T01:20:35.796Z,5.34
2019-05-13T01:23:03.680Z,5.27
2019-05-13T01:25:33.473Z,5.20
2019-05-13T01:28:00.167Z,5.27
2019-05-13T01:30:27.524Z,5.22
2019-05-13T01:32:54.799Z,5.15
2019-05-13T01:35:23.657Z,4.95
2019-05-13T01:37:53.880Z,5.02
2019-05-13T01:40:23.795Z,5.06
2019-05-13T01:42:50.420Z,5.11
2019-05-13T01:45:17.786Z,5.01
2019-05-13T01:47:44.766Z,4.99
2019-05-13T01:50:14.330Z,4.91
2019-05-13T01:52:41.304Z,4.82
2019-05-13T01:55:09.083Z,4.82
2019-05-13T01:57:36.087Z,4.90
2019-05-13T02:00:04.952Z,4.90
2019-05-13T02:02:33.688Z,4.87
2019-05-13T02:05:00.946Z,4.79
2019-05-13T02:07:29.758Z,4.79
2019-05-13T02:09:57.617Z,4.65
2019-05-13T02:12:25.030Z,4.63
2019-05-13T02:14:53.405Z,4.53
2019-05-13T02:17:23.292Z,4.53
2019-05-13T02:19:50.074Z,4.49
2019-05-13T02:22:17.518Z,4.49
2019-05-13T02:24:44.842Z,4.44
2019-05-13T02:27:14.061Z,4.50
2019-05-13T02:29:41.013Z,4.50
2019-05-13T02:32:08.892Z,4.31
2019-05-13T02:34:35.887Z,4.31
2019-05-13T02:37:03.522Z,4.31
2019-05-13T02:39:32.825Z,4.25
2019-05-13T02:42:03.651Z,4.25
2019-05-13T02:44:29.396Z,4.27
2019-05-13T02:46:57.151Z,4.28
2019-05-13T02:49:24.327Z,4.25
2019-05-13T02:51:54.691Z,4.24
2019-05-13T02:54:22.894Z,4.24
2019-05-13T02:56:52.495Z,4.17
2019-05-13T02:59:18.877Z,4.14
2019-05-13T03:01:46.196Z,4.14
2019-05-13T03:04:13.479Z,4.13
2019-05-13T03:06:43.468Z,4.22
2019-05-13T03:09:12.628Z,4.22
2019-05-13T03:11:41.571Z,4.08
2019-05-13T03:14:08.406Z,4.07
2019-05-13T03:16:57.571Z,4.04
2019-05-13T03:19:24.712Z,3.97
2019-05-13T03:21:52.662Z,3.97
2019-05-13T03:24:22.895Z,3.93
2019-05-13T03:26:49.321Z,3.97
2019-05-13T03:29:16.411Z,3.99
2019-05-13T03:31:46.653Z,3.99
2019-05-13T03:34:15.837Z,3.95
2019-05-13T03:36:45.807Z,3.99
2019-05-13T03:39:16.084Z,3.96
2019-05-13T03:41:42.470Z,3.87
2019-05-13T03:44:13.632Z,3.84
2019-05-13T03:46:42.551Z,3.93
2019-05-13T03:49:13.685Z,3.97
2019-05-13T03:51:42.894Z,3.84
2019-05-13T03:54:09.237Z,3.77
2019-05-13T03:56:36.283Z,3.83
2019-05-13T03:59:03.278Z,3.86
2019-05-13T04:01:32.716Z,3.88
2019-05-13T04:04:03.279Z,3.89
2019-05-13T04:06:31.955Z,3.95
2019-05-13T04:09:17.221Z,4.01
2019-05-13T04:11:27.511Z,4.01
2019-05-13T04:13:55.005Z,4.03
2019-05-13T04:16:23.722Z,4.10
2019-05-13T04:18:53.669Z,4.16
2019-05-13T04:21:22.783Z,4.18
2019-05-13T04:23:53.031Z,4.23
2019-05-13T04:26:23.193Z,4.26
2019-05-13T04:28:52.289Z,4.29
2019-05-13T04:31:18.283Z,4.30
2019-05-13T04:33:46.112Z,4.33
2019-05-13T04:36:13.957Z,4.39
2019-05-13T04:38:44.211Z,4.46
2019-05-13T04:41:11.971Z,4.47
2019-05-13T04:43:42.954Z,4.56
2019-05-13T04:46:09.353Z,4.55
2019-05-13T04:48:39.384Z,4.78
2019-05-13T04:51:06.568Z,4.87
2019-05-13T04:53:33.789Z,5.10
2019-05-13T04:56:03.081Z,5.10
2019-05-13T04:58:32.211Z,5.48
2019-05-13T05:01:58.926Z,5.48
2019-05-13T05:04:35.237Z,5.48
2019-05-13T05:07:32.795Z,5.57
2019-05-13T05:10:34.710Z,5.53
2019-05-13T05:13:28.531Z,5.65
2019-05-13T05:16:44.399Z,5.94
2019-05-13T05:19:35.399Z,6.01
2019-05-13T05:22:22.158Z,6.24
2019-05-13T05:25:04.779Z,6.31
2019-05-13T05:27:58.481Z,6.37
2019-05-13T05:31:02.350Z,6.37
2019-05-13T05:34:17.791Z,6.38
2019-05-13T05:37:27.223Z,6.51
2019-05-13T05:39:57.357Z,6.59
2019-05-13T05:42:26.543Z,6.59
2019-05-13T05:44:54.790Z,6.79
2019-05-13T05:47:24.973Z,6.79
2019-05-13T05:49:54.663Z,6.88
2019-05-13T05:52:25.174Z,6.89
2019-05-13T05:54:52.397Z,7.11
2019-05-13T05:57:22.542Z,7.58
2019-05-13T05:59:51.689Z,8.49
2019-05-13T06:02:19.093Z,10.12
2019-05-13T06:04:47.002Z,11.16
2019-05-13T06:07:15.643Z,12.74
2019-05-13T06:09:43.003Z,13.13
2019-05-13T06:12:12.123Z,14.00
2019-05-13T06:14:42.123Z,15.01
2019-05-13T06:17:11.375Z,15.56
2019-05-13T06:19:38.205Z,15.07
2019-05-13T06:22:05.209Z,14.41
2019-05-13T06:24:32.347Z,14.32
2019-05-13T06:27:01.519Z,14.50
2019-05-13T06:29:31.386Z,15.41
2019-05-13T06:32:15.247Z,15.05
2019-05-13T06:34:28.092Z,14.55
2019-05-13T06:36:55.531Z,13.71
2019-05-13T06:39:22.724Z,14.11
2019-05-13T06:41:51.770Z,14.57
2019-05-13T06:44:21.311Z,14.47
2019-05-13T06:46:47.907Z,14.21
2019-05-13T06:49:15.908Z,13.75
2019-05-13T06:51:43.084Z,14.21
2019-05-13T06:54:11.283Z,14.81
2019-05-13T06:56:38.824Z,15.40
2019-05-13T06:59:05.834Z,14.47
2019-05-13T07:01:32.956Z,14.34
2019-05-13T07:04:02.317Z,14.70
2019-05-13T07:06:32.094Z,14.55
2019-05-13T07:08:58.543Z,14.53
2019-05-13T07:11:25.604Z,12.42
2019-05-13T07:13:53.209Z,13.65
2019-05-13T07:16:22.370Z,13.97
2019-05-13T07:18:49.156Z,14.31
2019-05-13T07:21:16.172Z,14.92
2019-05-13T07:23:43.616Z,13.83
2019-05-13T07:26:12.303Z,13.53
2019-05-13T07:28:42.639Z,12.83
2019-05-13T07:31:11.399Z,14.68
2019-05-13T07:33:38.474Z,15.94
2019-05-13T07:36:05.741Z,14.66
2019-05-13T07:38:32.767Z,13.51
2019-05-13T07:41:02.869Z,14.78
2019-05-13T07:43:32.065Z,15.30
2019-05-13T07:46:01.895Z,16.19
2019-05-13T07:48:31.601Z,13.85
2019-05-13T07:51:00.629Z,13.64
2019-05-13T07:53:27.826Z,14.77
2019-05-13T07:55:55.381Z,14.17
2019-05-13T07:58:22.966Z,15.40
2019-05-13T08:00:51.975Z,16.34
2019-05-13T08:03:21.415Z,16.69
2019-05-13T08:05:48.273Z,16.50
2019-05-13T08:08:15.273Z,15.01
2019-05-13T08:10:42.320Z,13.85
2019-05-13T08:13:11.803Z,14.64
2019-05-13T08:15:38.523Z,13.35
2019-05-13T08:18:06.122Z,14.19
2019-05-13T08:20:33.127Z,15.99
2019-05-13T08:23:02.682Z,16.78
2019-05-13T08:25:31.454Z,16.61
2019-05-13T08:27:58.675Z,16.51
2019-05-13T08:30:25.816Z,16.29
2019-05-13T08:32:52.889Z,16.92
2019-05-13T08:35:22.428Z,17.31
2019-05-13T08:37:51.999Z,16.76
2019-05-13T08:40:20.320Z,17.20
2019-05-13T08:42:48.568Z,18.48
2019-05-13T08:45:15.768Z,17.56
2019-05-13T08:47:43.300Z,16.81
2019-05-13T08:50:12.026Z,17.06
2019-05-13T08:52:42.030Z,16.22
2019-05-13T08:55:12.699Z,17.40
2019-05-13T08:57:38.729Z,16.85
2019-05-13T09:00:06.111Z,15.85
2019-05-13T09:02:33.518Z,15.28
2019-05-13T09:05:02.326Z,16.70
2019-05-13T09:07:32.074Z,17.10
2019-05-13T09:09:58.856Z,17.37
2019-05-13T09:12:32.252Z,16.90
2019-05-13T09:14:55.108Z,17.75
2019-05-13T09:17:22.751Z,17.96
2019-05-13T09:19:51.978Z,18.12
2019-05-13T09:22:21.346Z,16.40
2019-05-13T09:24:48.414Z,18.22
2019-05-13T09:27:15.973Z,16.50
2019-05-13T09:29:43.641Z,17.03
2019-05-13T09:32:12.262Z,17.42
2019-05-13T09:34:41.967Z,18.20
2019-05-13T09:37:08.940Z,18.22
2019-05-13T09:39:36.035Z,16.86
2019-05-13T09:42:03.375Z,18.25
2019-05-13T09:44:32.713Z,18.48
2019-05-13T09:47:02.476Z,18.95
2019-05-13T09:49:32.501Z,18.52
2019-05-13T09:52:01.449Z,18.82
2019-05-13T09:54:27.950Z,17.14
2019-05-13T09:56:56.383Z,18.49
2019-05-13T09:59:25.946Z,18.32
2019-05-13T10:01:53.765Z,17.56
2019-05-13T10:04:22.286Z,17.25
2019-05-13T10:06:50.933Z,17.83
2019-05-13T10:09:18.112Z,17.21
2019-05-13T10:11:45.128Z,17.48
2019-05-13T10:14:12.202Z,17.19
2019-05-13T10:16:42.104Z,17.60
2019-05-13T10:19:08.741Z,17.71
2019-05-13T10:21:36.010Z,17.45
2019-05-13T10:24:03.366Z,17.64
2019-05-13T10:26:32.007Z,18.64
2019-05-13T10:28:59.775Z,17.32
2019-05-13T10:31:26.886Z,17.55
2019-05-13T10:33:53.910Z,17.51
2019-05-13T10:36:22.276Z,18.06
2019-05-13T10:38:52.207Z,18.37
2019-05-13T10:41:21.611Z,18.33
2019-05-13T10:43:48.550Z,17.86
2019-05-13T10:46:15.533Z,17.63
2019-05-13T10:48:43.054Z,17.69
2019-05-13T10:51:12.891Z,18.49
2019-05-13T10:53:39.111Z,18.49
2019-05-13T10:56:06.196Z,18.61
2019-05-13T10:58:33.182Z,18.72
2019-05-13T11:01:02.862Z,18.35
2019-05-13T11:03:33.119Z,18.30
2019-05-13T11:06:00.470Z,18.53
2019-05-13T11:08:27.560Z,18.81
2019-05-13T11:10:55.374Z,17.85
2019-05-13T11:13:23.412Z,17.81
2019-05-13T11:15:57.385Z,18.27
2019-05-13T11:18:23.570Z,18.08
2019-05-13T11:20:48.935Z,18.96
2019-05-13T11:23:15.934Z,19.03
2019-05-13T11:25:42.935Z,19.02
2019-05-13T11:28:11.613Z,18.17
2019-05-13T11:30:39.260Z,18.72
2019-05-13T11:33:10.098Z,19.23
2019-05-13T11:35:35.339Z,18.59
2019-05-13T11:38:04.537Z,18.63
2019-05-13T11:40:31.982Z,19.16
2019-05-13T11:43:01.713Z,19.78
2019-05-13T11:45:31.387Z,18.48
2019-05-13T11:47:57.766Z,18.47
2019-05-13T11:50:25.433Z,18.80
2019-05-13T11:52:52.766Z,18.39
2019-05-13T11:55:22.952Z,18.97
2019-05-13T11:57:49.413Z,19.00
2019-05-13T12:00:32.504Z,19.11
2019-05-13T12:03:03.583Z,19.52
2019-05-13T12:05:29.306Z,18.95
2019-05-13T12:07:56.433Z,19.17
2019-05-13T12:10:24.305Z,18.55
2019-05-13T12:12:51.317Z,19.59
2019-05-13T12:15:28.796Z,19.61
2019-05-13T12:17:47.668Z,20.08
2019-05-13T12:20:14.981Z,19.98
2019-05-13T12:22:43.365Z,19.79
2019-05-13T12:25:13.828Z,19.57
2019-05-13T12:27:41.938Z,19.63
2019-05-13T12:30:09.177Z,19.64
2019-05-13T12:32:36.166Z,19.35
2019-05-13T12:35:04.131Z,20.10
2019-05-13T12:37:33.503Z,20.59
2019-05-13T12:40:02.911Z,20.32
2019-05-13T12:42:29.057Z,20.03
2019-05-13T12:45:08.244Z,18.48
2019-05-13T12:47:25.101Z,19.71
2019-05-13T12:49:52.553Z,19.69
2019-05-13T12:52:22.175Z,19.93
2019-05-13T12:54:48.917Z,20.80
2019-05-13T12:57:17.285Z,19.22
2019-05-13T12:59:46.375Z,20.26
2019-05-13T13:02:13.606Z,20.83
2019-05-13T13:05:06.913Z,19.75
2019-05-13T13:07:13.401Z,20.24
2019-05-13T13:09:39.691Z,20.03
2019-05-13T13:12:08.685Z,20.63
2019-05-13T13:14:39.435Z,20.09
2019-05-13T13:17:05.741Z,19.87
2019-05-13T13:19:34.170Z,21.12
2019-05-13T13:22:07.859Z,20.96
2019-05-13T13:24:35.229Z,18.46
2019-05-13T13:27:03.120Z,20.44
2019-05-13T13:29:33.982Z,20.78
2019-05-13T13:32:02.894Z,21.36
2019-05-13T13:34:33.625Z,20.36
2019-05-13T13:37:04.689Z,20.92
2019-05-13T13:39:29.861Z,19.65
2019-05-13T13:42:04.883Z,21.01
2019-05-13T13:44:34.751Z,19.81
2019-05-13T13:46:58.886Z,20.63
2019-05-13T13:49:25.941Z,21.10
2019-05-13T13:51:53.574Z,20.76
2019-05-13T13:54:22.388Z,21.46
2019-05-13T13:56:54.505Z,21.52
2019-05-13T13:59:18.658Z,21.22
2019-05-13T14:01:45.672Z,22.21
2019-05-13T14:04:16.483Z,20.77
2019-05-13T14:09:12.067Z,20.08
2019-05-13T14:11:42.006Z,21.03
2019-05-13T14:14:09.208Z,21.43
2019-05-13T14:16:36.204Z,20.03
2019-05-13T14:19:03.517Z,20.83
2019-05-13T14:21:32.443Z,20.80
2019-05-13T14:24:02.428Z,19.57
2019-05-13T14:26:28.708Z,20.48
2019-05-13T14:28:55.863Z,19.42
2019-05-13T14:31:22.870Z,20.68
2019-05-13T14:33:52.061Z,20.60
2019-05-13T14:36:22.691Z,20.58
2019-05-13T14:38:52.399Z,20.79
2019-05-13T14:41:18.139Z,20.80
2019-05-13T14:43:45.256Z,21.34
2019-05-13T14:46:12.740Z,20.77
2019-05-13T14:48:39.966Z,21.44
2019-05-13T14:51:07.745Z,20.59
2019-05-13T14:53:34.781Z,20.39
2019-05-13T14:56:02.914Z,19.63
2019-05-13T14:58:32.455Z,19.99
2019-05-13T15:01:14.323Z,19.84
2019-05-13T15:03:28.837Z,20.53
2019-05-13T15:05:56.001Z,21.39
2019-05-13T15:08:26.136Z,19.98
2019-05-13T15:10:53.688Z,20.91
2019-05-13T15:13:22.520Z,19.79
2019-05-13T15:15:51.716Z,19.06
2019-05-13T15:18:18.565Z,18.89
2019-05-13T15:20:46.247Z,18.40
2019-05-13T15:23:13.589Z,17.80
2019-05-13T15:25:41.995Z,17.42
2019-05-13T15:28:11.934Z,17.85
2019-05-13T15:30:38.879Z,17.61
2019-05-13T15:33:05.922Z,17.40
2019-05-13T15:35:33.239Z,17.84
2019-05-13T15:38:01.325Z,17.60
2019-05-13T15:40:31.225Z,17.67
2019-05-13T15:43:17.127Z,17.78
2019-05-13T15:45:31.889Z,17.88
2019-05-13T15:47:59.214Z,17.87
2019-05-13T15:50:26.319Z,17.75
2019-05-13T15:52:53.294Z,17.61
2019-05-13T15:55:21.997Z,17.52
2019-05-13T15:57:51.794Z,17.38
2019-05-13T16:00:21.920Z,17.48
2019-05-13T16:02:49.272Z,17.28
2019-05-13T16:05:16.682Z,17.21
2019-05-13T16:07:43.770Z,17.11
2019-05-13T16:10:11.472Z,16.95
2019-05-13T16:12:38.748Z,16.75
2019-05-13T16:15:06.677Z,16.94
2019-05-13T16:17:41.171Z,17.18
2019-05-13T16:20:03.854Z,17.29
2019-05-13T16:22:31.617Z,17.02
2019-05-13T16:25:00.895Z,17.10
2019-05-13T16:27:27.896Z,17.07
2019-05-13T16:29:54.938Z,16.95
2019-05-13T16:32:22.682Z,16.73
2019-05-13T16:35:02.778Z,16.76
2019-05-13T16:37:31.364Z,16.88
2019-05-13T16:39:58.582Z,17.31
2019-05-13T16:42:25.859Z,16.93
2019-05-13T16:44:53.399Z,16.93
2019-05-13T16:47:21.329Z,16.81
2019-05-13T16:49:49.322Z,16.83
2019-05-13T16:52:16.494Z,16.84
2019-05-13T16:54:43.554Z,17.03
2019-05-13T16:57:11.694Z,17.32
2019-05-13T16:59:41.131Z,17.31
2019-05-13T17:02:08.607Z,17.14
2019-05-13T17:04:35.858Z,16.93
2019-05-13T17:07:03.005Z,16.82
2019-05-13T17:09:32.091Z,16.56
2019-05-13T17:12:01.278Z,16.80
2019-05-13T17:14:34.288Z,16.52
2019-05-13T17:17:01.441Z,16.40
2019-05-13T17:19:28.498Z,16.51
2019-05-13T17:21:56.066Z,16.63
2019-05-13T17:24:23.535Z,16.56
2019-05-13T17:26:52.281Z,16.22
2019-05-13T17:29:22.089Z,16.24
2019-05-13T17:31:51.506Z,16.28
2019-05-13T17:34:21.062Z,16.09
2019-05-13T17:36:48.383Z,16.00
2019-05-13T17:39:15.536Z,16.11
2019-05-13T17:41:42.687Z,16.08
2019-05-13T17:44:11.628Z,16.18
2019-05-13T17:46:41.615Z,16.04
2019-05-13T17:49:08.330Z,15.97
2019-05-13T17:51:35.383Z,16.08
2019-05-13T17:54:03.156Z,15.76
2019-05-13T17:56:32.262Z,15.87
2019-05-13T17:58:59.376Z,15.76
2019-05-13T18:01:26.363Z,15.70
2019-05-13T18:03:53.804Z,15.47
2019-05-13T18:06:20.851Z,15.49
2019-05-13T18:08:48.070Z,15.35
2019-05-13T18:11:15.255Z,15.31
2019-05-13T18:13:43.733Z,15.24
2019-05-13T18:16:12.577Z,15.09
2019-05-13T18:18:46.365Z,15.02
2019-05-13T18:21:09.077Z,14.87
2019-05-13T18:23:36.429Z,15.01
2019-05-13T18:26:03.482Z,15.04
2019-05-13T18:28:31.579Z,14.89
2019-05-13T18:31:01.517Z,14.76
2019-05-13T18:33:28.527Z,14.91
2019-05-13T18:35:55.621Z,14.56
2019-05-13T18:38:22.680Z,14.64
2019-05-13T18:40:52.393Z,14.53
2019-05-13T18:43:21.369Z,14.45
2019-05-13T18:45:48.321Z,14.40
2019-05-13T18:48:15.519Z,14.23
2019-05-13T18:50:42.568Z,14.17
2019-05-13T18:53:10.235Z,14.21
2019-05-13T18:55:38.373Z,14.03
2019-05-13T18:58:05.458Z,14.00
2019-05-13T19:00:32.478Z,13.80
2019-05-13T19:03:01.305Z,13.96
2019-05-13T19:05:28.593Z,13.86
2019-05-13T19:08:06.440Z,13.67
2019-05-13T19:10:33.907Z,13.62
2019-05-13T19:13:01.785Z,13.62
2019-05-13T19:15:29.017Z,13.62
2019-05-13T19:17:57.920Z,13.59
2019-05-13T19:20:26.393Z,13.31
2019-05-13T19:22:53.417Z,13.33
2019-05-13T19:25:20.434Z,13.23
2019-05-13T19:27:51.700Z,13.30
2019-05-13T19:30:21.149Z,13.09
2019-05-13T19:32:48.449Z,13.14
2019-05-13T19:35:15.441Z,12.85
2019-05-13T19:37:43.014Z,12.86
2019-05-13T19:40:12.950Z,12.87
2019-05-13T19:42:41.826Z,12.83
2019-05-13T19:45:09.578Z,12.72
2019-05-13T19:47:36.590Z,12.71
2019-05-13T19:50:03.911Z,12.58
2019-05-13T19:52:33.047Z,12.50
2019-05-13T19:55:01.788Z,12.50
2019-05-13T19:57:31.628Z,12.35
2019-05-13T19:59:58.338Z,12.36
2019-05-13T20:02:25.909Z,12.11
2019-05-13T20:04:53.026Z,12.05
2019-05-13T20:07:22.394Z,11.95
2019-05-13T20:09:51.634Z,11.75
2019-05-13T20:12:21.090Z,11.84
2019-05-13T20:14:47.725Z,11.81
2019-05-13T20:17:16.225Z,11.75
2019-05-13T20:19:50.259Z,11.62
2019-05-13T20:22:12.578Z,11.67
2019-05-13T20:24:41.836Z,11.50
2019-05-13T20:27:08.908Z,11.46
2019-05-13T20:29:36.333Z,11.42
2019-05-13T20:32:03.399Z,11.31
2019-05-13T20:34:31.808Z,11.25
2019-05-13T20:36:59.178Z,11.18
2019-05-13T20:39:26.184Z,11.31
2019-05-13T20:41:55.823Z,10.93
2019-05-13T20:44:22.718Z,10.97
2019-05-13T20:53:25.389Z,10.79
2019-05-13T20:55:52.379Z,10.74
2019-05-13T20:58:21.337Z,10.67
2019-05-13T21:00:48.348Z,10.60
2019-05-13T21:03:15.905Z,10.69
2019-05-13T21:05:42.892Z,10.43
2019-05-13T21:08:10.182Z,10.64
2019-05-13T21:10:37.542Z,10.58
2019-05-13T21:13:05.854Z,10.40
2019-05-13T21:15:32.890Z,10.29
2019-05-13T21:18:02.103Z,10.35
2019-05-13T21:20:31.943Z,10.33
2019-05-13T21:22:59.360Z,10.12
2019-05-13T21:25:26.385Z,10.26
2019-05-13T21:27:53.375Z,10.15
2019-05-13T21:30:22.240Z,10.20
2019-05-13T21:32:51.757Z,10.10
2019-05-13T21:35:21.072Z,10.08
2019-05-13T21:37:48.085Z,9.90
2019-05-13T21:40:17.302Z,9.62
2019-05-13T21:42:44.846Z,9.77
2019-05-13T21:45:12.396Z,9.65
2019-05-13T21:47:39.402Z,9.75
2019-05-13T21:50:07.319Z,9.62
2019-05-13T21:52:34.334Z,9.58
2019-05-13T21:55:01.980Z,9.47
2019-05-13T21:57:32.914Z,9.36
2019-05-13T21:59:58.654Z,9.50
2019-05-13T22:02:25.646Z,9.28
2019-05-13T22:04:52.678Z,9.29
2019-05-13T22:07:22.094Z,9.23
2019-05-13T22:09:51.219Z,9.10
2019-05-13T22:12:17.926Z,9.03
2019-05-13T22:14:44.970Z,8.97
2019-05-13T22:17:12.500Z,8.84
2019-05-13T22:19:41.939Z,8.90
2019-05-13T22:22:11.635Z,8.99
2019-05-13T22:24:38.623Z,8.89
2019-05-13T22:27:05.614Z,8.83
2019-05-13T22:29:33.634Z,8.86
2019-05-13T22:32:02.000Z,8.78
2019-05-13T22:34:31.711Z,8.58
2019-05-13T22:36:58.241Z,8.70
2019-05-13T22:39:25.679Z,8.55
2019-05-13T22:41:52.681Z,8.55
2019-05-13T22:44:21.773Z,8.50
2019-05-13T22:46:48.871Z,8.41
2019-05-13T22:49:16.540Z,8.28
2019-05-13T22:51:43.910Z,8.48
2019-05-13T22:54:11.836Z,8.44
2019-05-13T22:56:41.217Z,8.33
2019-05-13T22:59:08.766Z,8.38
2019-05-13T23:01:35.773Z,8.28
2019-05-13T23:04:02.765Z,8.15
2019-05-13T23:06:32.002Z,8.06
2019-05-13T23:09:01.683Z,8.16
2019-05-13T23:11:28.269Z,7.99
2019-05-13T23:14:06.412Z,8.09
2019-05-13T23:16:24.232Z,7.94
2019-05-13T23:18:52.103Z,7.75
2019-05-13T23:21:19.261Z,8.03
2019-05-13T23:23:46.371Z,8.01
2019-05-13T23:26:13.434Z,7.92
2019-05-13T23:28:41.612Z,7.77
2019-05-13T23:31:09.060Z,7.64
2019-05-13T23:33:36.127Z,7.64
2019-05-13T23:36:03.376Z,7.61
2019-05-13T23:38:32.294Z,7.52
2019-05-13T23:41:01.882Z,7.61
2019-05-13T23:43:30.948Z,7.71
2019-05-13T23:45:57.699Z,7.79
2019-05-13T23:48:25.024Z,7.84
2019-05-13T23:50:52.370Z,7.84
2019-05-13T23:53:21.663Z,7.78
2019-05-13T23:55:48.375Z,7.55
2019-05-13T23:58:16.227Z,7.54
